Time;durP1;ratioP1;P1;durP2;ratioP2;P2;SDS_P1;SDS_P2;PMS_P1;PMS_P2;Temp;Humidity;BMP_temperature;BMP_pressure;BME280_temperature;BME280_humidity;BME280_pressure;Samples;Min_cycle;Max_cycle;Signal;HPM_P1;HPM_P2
2022/04/01 00:01:01;;;;;;;5.75;2.40;;;4.90;80.90;;;;;;5063359;28;20479;-87
2022/04/01 00:03:26;;;;;;;6.22;2.83;;;4.80;80.30;;;;;;5066341;28;20516;-86
2022/04/01 00:05:52;;;;;;;6.60;3.58;;;4.80;80.60;;;;;;5060012;28;20074;-86
2022/04/01 00:08:17;;;;;;;8.85;3.70;;;4.90;80.00;;;;;;5094647;28;20028;-86
2022/04/01 00:10:43;;;;;;;11.82;4.50;;;4.90;80.10;;;;;;5082715;28;20035;-86
2022/04/01 00:13:09;;;;;;;5.53;3.03;;;5.00;79.90;;;;;;5081151;28;20037;-88
2022/04/01 00:15:34;;;;;;;8.02;2.83;;;5.10;80.20;;;;;;5082168;28;20024;-86
2022/04/01 00:18:00;;;;;;;10.55;3.40;;;5.00;80.20;;;;;;5080276;28;20029;-87
2022/04/01 00:20:27;;;;;;;7.07;3.58;;;5.00;80.10;;;;;;5082895;28;20024;-85
2022/04/01 00:22:53;;;;;;;5.00;3.10;;;5.00;81.10;;;;;;5052223;28;20049;-85
2022/04/01 00:25:18;;;;;;;4.85;3.20;;;5.00;81.00;;;;;;5057142;28;20040;-86
2022/04/01 00:27:44;;;;;;;5.88;3.35;;;5.10;82.00;;;;;;5064516;28;20021;-86
2022/04/01 00:30:10;;;;;;;7.93;3.10;;;5.10;82.60;;;;;;5063898;28;20035;-85
2022/04/01 00:32:36;;;;;;;7.13;3.63;;;5.10;82.00;;;;;;5064351;28;20039;-84
2022/04/01 00:35:03;;;;;;;7.40;3.22;;;5.00;82.80;;;;;;5082452;28;20025;-87
2022/04/01 00:37:28;;;;;;;13.30;3.97;;;5.10;82.50;;;;;;5060581;28;20048;-86
2022/04/01 00:39:54;;;;;;;7.85;3.10;;;5.20;82.10;;;;;;5064995;28;20028;-87
2022/04/01 00:42:19;;;;;;;6.00;3.58;;;5.10;81.30;;;;;;5070592;28;20050;-85
2022/04/01 00:44:45;;;;;;;11.50;3.13;;;5.10;80.60;;;;;;5066920;28;20028;-85
2022/04/01 00:47:13;;;;;;;6.55;3.80;;;5.10;79.30;;;;;;5096296;28;20036;-85
2022/04/01 00:49:40;;;;;;;8.70;3.10;;;4.90;79.30;;;;;;5080492;28;20027;-86
2022/04/01 00:52:09;;;;;;;9.30;3.78;;;4.70;80.50;;;;;;5075836;28;20031;-86
2022/04/01 00:54:35;;;;;;;9.90;4.25;;;4.80;80.00;;;;;;5077232;28;20102;-85
2022/04/01 00:57:03;;;;;;;9.55;3.63;;;4.80;80.40;;;;;;5068727;28;20056;-85
2022/04/01 00:59:28;;;;;;;13.32;3.03;;;4.80;80.40;;;;;;5089229;28;20024;-86
2022/04/01 01:01:54;;;;;;;4.88;2.92;;;4.90;80.20;;;;;;5076183;28;20437;-86
2022/04/01 01:04:20;;;;;;;5.88;3.38;;;4.90;80.50;;;;;;5062263;28;20036;-85
2022/04/01 01:06:50;;;;;;;5.70;3.47;;;4.90;80.80;;;;;;5070398;28;20026;-85
2022/04/01 01:09:16;;;;;;;8.52;3.45;;;4.90;80.80;;;;;;5065486;28;20085;-85
2022/04/01 01:11:44;;;;;;;5.10;3.53;;;4.80;80.60;;;;;;5075338;28;20032;-86
2022/04/01 01:14:13;;;;;;;5.07;2.88;;;4.70;81.50;;;;;;5069461;28;20102;-84
2022/04/01 01:16:41;;;;;;;9.32;3.20;;;4.60;81.00;;;;;;5063387;28;20023;-85
2022/04/01 01:19:17;;;;;;;6.53;3.28;;;4.70;81.30;;;;;;5080195;28;20111;-85
2022/04/01 01:21:44;;;;;;;8.13;3.13;;;4.70;81.10;;;;;;5081210;28;20038;-85
2022/04/01 01:24:12;;;;;;;4.75;3.20;;;4.70;81.70;;;;;;5084955;28;20111;-86
2022/04/01 01:26:38;;;;;;;8.60;4.07;;;4.80;81.50;;;;;;5080277;28;20068;-89
2022/04/01 01:29:06;;;;;;;6.65;2.72;;;4.90;80.90;;;;;;5061431;28;20024;-85
2022/04/01 01:31:33;;;;;;;7.10;3.05;;;4.90;80.10;;;;;;5073272;28;20131;-84
2022/04/01 01:33:59;;;;;;;8.60;3.58;;;4.90;80.30;;;;;;5063888;28;20056;-85
2022/04/01 01:36:27;;;;;;;5.10;3.20;;;4.90;80.20;;;;;;5063655;28;20058;-84
2022/04/01 01:38:53;;;;;;;6.03;3.25;;;4.80;79.60;;;;;;5061426;28;20020;-87
2022/04/01 01:41:20;;;;;;;10.73;4.32;;;4.80;79.70;;;;;;5084719;28;20079;-85
2022/04/01 01:43:46;;;;;;;6.93;3.53;;;4.70;79.20;;;;;;5081458;28;20111;-86
2022/04/01 01:46:12;;;;;;;6.72;4.05;;;4.70;79.90;;;;;;5085184;28;20096;-84
2022/04/01 01:48:37;;;;;;;5.57;3.80;;;4.60;79.10;;;;;;5076957;28;20462;-86
2022/04/01 01:56:31;;;;;;;8.35;3.83;;;4.80;78.90;;;;;;5081047;28;20051;-84
2022/04/01 01:58:57;;;;;;;4.82;2.92;;;4.70;79.90;;;;;;5097474;28;20384;-86
2022/04/01 02:01:23;;;;;;;6.65;3.25;;;4.80;79.20;;;;;;5085184;28;20072;-85
2022/04/01 02:03:49;;;;;;;5.53;2.80;;;4.80;78.40;;;;;;5073395;28;20059;-86
2022/04/01 02:06:15;;;;;;;9.43;2.92;;;4.80;78.50;;;;;;5054524;28;20028;-85
2022/04/01 02:08:41;;;;;;;9.02;3.08;;;4.80;77.90;;;;;;5056739;28;20024;-88
2022/04/01 02:11:07;;;;;;;7.05;3.28;;;4.80;77.80;;;;;;5055687;28;20055;-87
2022/04/01 02:13:34;;;;;;;6.88;2.60;;;4.80;77.50;;;;;;5062612;28;20528;-88
2022/04/01 02:16:00;;;;;;;6.32;2.35;;;4.80;77.00;;;;;;5080403;28;20021;-83
2022/04/01 02:18:26;;;;;;;14.30;3.20;;;4.80;75.60;;;;;;5068144;28;20027;-87
2022/04/01 02:20:51;;;;;;;4.40;3.00;;;4.60;75.90;;;;;;5056331;28;20016;-86
2022/04/01 02:23:17;;;;;;;4.85;3.00;;;4.60;76.20;;;;;;5056493;28;20029;-86
2022/04/01 02:25:43;;;;;;;6.88;3.22;;;4.70;74.00;;;;;;5057538;28;20024;-84
2022/04/01 02:28:10;;;;;;;6.60;2.83;;;4.70;73.50;;;;;;5055469;28;20222;-85
2022/04/01 02:30:36;;;;;;;8.23;3.60;;;4.60;73.40;;;;;;5057297;28;20476;-85
2022/04/01 02:33:02;;;;;;;10.50;2.75;;;4.70;72.40;;;;;;5054622;28;20063;-87
2022/04/01 02:35:28;;;;;;;9.93;2.85;;;4.60;72.80;;;;;;5061539;28;20108;-83
2022/04/01 02:37:54;;;;;;;4.97;3.33;;;4.60;71.40;;;;;;5049458;28;20023;-85
2022/04/01 02:40:20;;;;;;;6.40;2.92;;;4.40;71.70;;;;;;5070452;28;20032;-84
2022/04/01 02:42:45;;;;;;;7.50;2.83;;;4.30;72.50;;;;;;5072105;28;20086;-84
2022/04/01 02:45:11;;;;;;;9.57;3.13;;;4.30;72.00;;;;;;5072348;28;20017;-86
2022/04/01 02:47:36;;;;;;;6.40;2.72;;;4.20;72.10;;;;;;5058529;28;20022;-85
2022/04/01 02:50:04;;;;;;;5.97;3.30;;;4.20;72.10;;;;;;5067485;28;20384;-84
2022/04/01 02:52:30;;;;;;;6.00;2.85;;;4.20;71.70;;;;;;5072178;28;20029;-88
2022/04/01 02:54:56;;;;;;;4.95;2.78;;;4.20;73.00;;;;;;5085776;28;20040;-84
2022/04/01 02:57:22;;;;;;;9.88;2.53;;;4.30;71.90;;;;;;5070623;28;20021;-86
2022/04/01 02:59:48;;;;;;;5.65;2.28;;;4.30;71.60;;;;;;5081257;28;20012;-86
2022/04/01 03:02:14;;;;;;;9.20;3.30;;;4.30;70.60;;;;;;5057700;28;20028;-84
2022/04/01 03:04:40;;;;;;;5.28;2.55;;;4.20;71.80;;;;;;5060737;28;20100;-87
2022/04/01 03:07:06;;;;;;;9.25;2.63;;;4.20;71.20;;;;;;5062771;28;20112;-84
2022/04/01 03:09:32;;;;;;;7.20;2.60;;;4.20;70.30;;;;;;5076236;28;20034;-87
2022/04/01 03:11:58;;;;;;;4.45;2.40;;;4.20;70.90;;;;;;5075279;28;20457;-85
2022/04/01 03:14:23;;;;;;;5.57;2.63;;;4.20;71.30;;;;;;5097474;28;20054;-84
2022/04/01 03:16:49;;;;;;;6.32;3.72;;;4.20;71.10;;;;;;5071159;28;20032;-83
2022/04/01 03:19:16;;;;;;;10.32;2.50;;;4.20;70.00;;;;;;5081193;28;20025;-89
2022/04/01 03:21:42;;;;;;;7.45;3.15;;;4.20;70.90;;;;;;5088817;28;20016;-85
2022/04/01 03:24:09;;;;;;;5.60;3.08;;;4.10;70.60;;;;;;5107322;28;20017;-83
2022/04/01 03:26:35;;;;;;;7.50;3.42;;;4.10;71.00;;;;;;5077178;28;20066;-86
2022/04/01 03:29:01;;;;;;;7.45;2.72;;;4.10;70.70;;;;;;5076281;28;20036;-84
2022/04/01 03:31:28;;;;;;;4.18;2.08;;;4.00;70.10;;;;;;5063901;28;20028;-85
2022/04/01 03:33:54;;;;;;;5.18;2.50;;;4.10;70.70;;;;;;5080230;28;20028;-85
2022/04/01 03:36:20;;;;;;;4.25;3.08;;;4.00;71.30;;;;;;5058631;28;20033;-85
2022/04/01 03:38:46;;;;;;;4.72;2.17;;;4.00;70.00;;;;;;5070666;28;20103;-85
2022/04/01 03:41:12;;;;;;;3.78;2.70;;;4.00;71.00;;;;;;5072041;28;20056;-86
2022/04/01 03:43:40;;;;;;;3.33;2.15;;;4.10;70.40;;;;;;5053071;28;20074;-88
2022/04/01 03:46:11;;;;;;;9.30;3.25;;;4.10;70.70;;;;;;5051245;28;20055;-84
2022/04/01 03:49:02;;;;;;;5.70;3.05;;;4.10;69.50;;;;;;5055464;28;20103;-87
2022/04/01 03:51:29;;;;;;;3.30;2.38;;;4.10;70.30;;;;;;5052442;28;20040;-85
2022/04/01 03:54:01;;;;;;;6.43;2.72;;;4.10;70.00;;;;;;5086141;28;20028;-85
2022/04/01 03:56:36;;;;;;;6.20;2.97;;;4.10;70.80;;;;;;5056291;28;20031;-88
2022/04/01 03:59:06;;;;;;;7.60;2.88;;;4.20;70.00;;;;;;5069989;28;20027;-87
2022/04/01 04:01:34;;;;;;;5.18;2.65;;;4.20;70.70;;;;;;5051950;28;20033;-87
2022/04/01 04:04:00;;;;;;;4.97;2.83;;;4.30;70.30;;;;;;5065569;28;20434;-84
2022/04/01 04:06:26;;;;;;;3.83;2.72;;;4.20;70.60;;;;;;5051222;28;20025;-86
2022/04/01 04:08:57;;;;;;;6.55;2.92;;;4.20;70.40;;;;;;5053921;28;20036;-87
2022/04/01 04:11:24;;;;;;;3.85;2.50;;;4.20;70.20;;;;;;5055166;28;20044;-85
2022/04/01 04:13:52;;;;;;;5.93;2.70;;;4.10;70.40;;;;;;5069738;28;20469;-84
2022/04/01 04:16:23;;;;;;;4.05;2.40;;;4.10;71.20;;;;;;5052206;28;20064;-87
2022/04/01 04:18:54;;;;;;;4.85;2.30;;;4.20;71.40;;;;;;5075311;28;20087;-87
2022/04/01 04:21:30;;;;;;;3.97;2.58;;;4.10;70.70;;;;;;5068999;28;20119;-85
2022/04/01 04:23:58;;;;;;;3.42;2.50;;;4.10;70.10;;;;;;5082364;28;20044;-86
2022/04/01 04:26:38;;;;;;;4.90;3.03;;;4.00;70.90;;;;;;5054273;28;20028;-85
2022/04/01 04:29:13;;;;;;;4.88;2.95;;;4.00;70.00;;;;;;5062238;28;20029;-87
2022/04/01 04:31:44;;;;;;;10.13;2.92;;;4.00;70.20;;;;;;5059968;28;20107;-87
2022/04/01 04:34:11;;;;;;;5.60;2.22;;;4.00;70.40;;;;;;5052388;28;20028;-89
2022/04/01 04:36:39;;;;;;;7.47;2.67;;;4.10;70.50;;;;;;5049734;28;20107;-88
2022/04/01 04:39:07;;;;;;;4.32;2.65;;;4.00;71.10;;;;;;5056056;28;20024;-86
2022/04/01 04:41:34;;;;;;;5.10;2.53;;;3.90;70.70;;;;;;5074054;28;20020;-86
2022/04/01 04:44:00;;;;;;;6.50;2.63;;;3.90;70.50;;;;;;5051021;28;20469;-88
2022/04/01 04:46:27;;;;;;;7.80;3.05;;;3.90;70.60;;;;;;5054789;28;20060;-87
2022/04/01 04:48:54;;;;;;;6.90;2.80;;;3.90;70.50;;;;;;5059912;28;20044;-84
2022/04/01 04:51:30;;;;;;;7.50;2.60;;;3.90;70.70;;;;;;5055507;28;20386;-84
2022/04/01 04:54:00;;;;;;;8.45;2.63;;;4.00;71.10;;;;;;5067301;28;20092;-85
2022/04/01 04:56:26;;;;;;;4.32;2.58;;;3.90;69.90;;;;;;5053460;28;20021;-89
2022/04/01 04:58:55;;;;;;;5.70;2.97;;;3.80;71.10;;;;;;5071678;28;20048;-86
2022/04/01 05:01:35;;;;;;;5.10;3.05;;;3.80;71.20;;;;;;5061375;28;20384;-84
2022/04/01 05:04:29;;;;;;;5.82;3.25;;;4.00;71.40;;;;;;5054410;28;20066;-88
2022/04/01 05:07:08;;;;;;;4.50;2.78;;;4.00;71.60;;;;;;5054913;28;20017;-87
2022/04/01 05:09:42;;;;;;;5.97;3.00;;;4.00;71.20;;;;;;5061514;28;20110;-88
2022/04/01 05:12:28;;;;;;;7.32;3.58;;;3.90;71.90;;;;;;5034743;28;20020;-87
2022/04/01 05:15:16;;;;;;;4.47;2.58;;;3.80;72.20;;;;;;5069719;28;20032;-87
2022/04/01 05:18:15;;;;;;;4.80;2.55;;;3.80;72.50;;;;;;5071920;28;20025;-87
2022/04/01 05:20:52;;;;;;;6.30;3.10;;;3.80;72.10;;;;;;5072162;28;20028;-87
2022/04/01 05:23:43;;;;;;;6.35;3.08;;;3.80;72.50;;;;;;5078192;28;20025;-84
2022/04/01 05:26:13;;;;;;;5.28;3.03;;;3.80;72.60;;;;;;5060392;28;20029;-85
2022/04/01 05:28:51;;;;;;;13.50;3.03;;;3.80;72.40;;;;;;5059855;28;20025;-87
2022/04/01 05:31:26;;;;;;;6.22;2.80;;;3.70;72.80;;;;;;5068817;28;20024;-88
2022/04/01 05:34:00;;;;;;;4.30;2.88;;;3.60;72.80;;;;;;5063637;28;20520;-88
2022/04/01 05:36:26;;;;;;;5.38;2.90;;;3.60;73.50;;;;;;5058290;28;20029;-87
2022/04/01 05:38:54;;;;;;;6.85;3.28;;;3.60;73.70;;;;;;5074741;28;20441;-88
2022/04/01 05:41:25;;;;;;;3.97;2.97;;;3.80;73.80;;;;;;5075209;28;20047;-87
2022/04/01 05:43:51;;;;;;;5.85;2.80;;;3.80;73.80;;;;;;5057033;28;20476;-89
2022/04/01 05:46:22;;;;;;;4.93;2.60;;;4.00;73.90;;;;;;5056287;28;20021;-88
2022/04/01 05:48:49;;;;;;;3.43;1.63;;;3.90;72.80;;;;;;5055686;28;20416;-87
2022/04/01 05:51:15;;;;;;;4.10;2.50;;;4.00;72.60;;;;;;5054424;28;20020;-88
2022/04/01 05:53:47;;;;;;;9.07;3.13;;;4.00;70.90;;;;;;5064833;28;20453;-87
2022/04/01 05:56:19;;;;;;;3.72;1.85;;;4.00;71.60;;;;;;5074915;28;20035;-88
2022/04/01 05:58:49;;;;;;;6.38;2.85;;;4.10;71.80;;;;;;5057569;28;20025;-86
2022/04/01 06:01:21;;;;;;;3.92;2.60;;;4.00;71.10;;;;;;5055387;28;20044;-88
2022/04/01 06:04:28;;;;;;;7.45;2.97;;;3.90;71.40;;;;;;5058262;28;20059;-87
2022/04/01 06:07:09;;;;;;;8.85;2.63;;;3.80;71.90;;;;;;5056571;28;20484;-86
2022/04/01 06:09:58;;;;;;;4.82;2.63;;;3.80;71.90;;;;;;5049043;28;20067;-86
2022/04/01 06:12:51;;;;;;;6.07;2.58;;;3.90;71.80;;;;;;5069176;28;20032;-87
2022/04/01 06:15:43;;;;;;;;;;;3.80;71.20;;;;;;5070569;28;20021;-85
2022/04/01 06:18:30;;;;;;;4.65;2.47;;;3.80;71.50;;;;;;5064661;28;19912;-86
2022/04/01 06:21:05;;;;;;;7.65;2.58;;;3.90;73.10;;;;;;5051829;28;20059;-86
2022/04/01 06:23:49;;;;;;;4.95;2.80;;;3.90;71.40;;;;;;5052175;28;20052;-86
2022/04/01 06:26:16;;;;;;;4.07;2.88;;;3.80;72.60;;;;;;5068150;28;20035;-87
2022/04/01 06:29:18;;;;;;;9.82;3.17;;;3.80;72.00;;;;;;5072370;28;20016;-86
2022/04/01 06:31:57;;;;;;;6.00;3.17;;;3.80;73.00;;;;;;5083780;28;20017;-87
2022/04/01 06:34:46;;;;;;;7.45;2.92;;;3.90;72.80;;;;;;5069888;28;20295;-87
2022/04/01 06:37:22;;;;;;;5.15;2.92;;;3.80;73.00;;;;;;5055636;28;20471;-87
2022/04/01 06:40:06;;;;;;;4.90;2.90;;;3.80;73.20;;;;;;5055124;28;20553;-87
2022/04/01 06:42:37;;;;;;;7.03;2.80;;;3.80;74.40;;;;;;5055800;28;20020;-86
2022/04/01 06:45:04;;;;;;;5.35;2.55;;;4.00;73.90;;;;;;5073772;28;20358;-87
2022/04/01 06:47:30;;;;;;;5.55;3.10;;;3.90;73.70;;;;;;5073326;28;20040;-86
2022/04/01 06:49:55;;;;;;;12.30;2.70;;;3.80;73.80;;;;;;5073166;28;20020;-86
2022/04/01 06:52:21;;;;;;;4.82;2.47;;;3.80;73.70;;;;;;5073525;28;20047;-87
2022/04/01 06:54:46;;;;;;;4.20;2.75;;;4.00;73.90;;;;;;5055715;28;20069;-86
2022/04/01 06:57:12;;;;;;;5.60;3.65;;;3.90;73.60;;;;;;5060551;28;20021;-88
2022/04/01 06:59:38;;;;;;;5.68;2.45;;;4.00;73.30;;;;;;5082509;28;20137;-88
2022/04/01 07:02:04;;;;;;;4.00;2.45;;;3.80;73.50;;;;;;5062008;28;20046;-87
2022/04/01 07:04:29;;;;;;;5.97;3.85;;;3.70;73.10;;;;;;5060256;28;20116;-85
2022/04/01 07:06:59;;;;;;;8.00;2.72;;;3.70;73.50;;;;;;5092403;28;20024;-85
2022/04/01 07:09:25;;;;;;;5.75;2.78;;;3.70;73.40;;;;;;5092032;28;20024;-86
2022/04/01 07:11:51;;;;;;;8.85;2.83;;;3.70;74.00;;;;;;5071818;28;20024;-85
2022/04/01 07:14:16;;;;;;;8.20;2.90;;;3.60;75.00;;;;;;5075373;28;20035;-85
2022/04/01 07:16:42;;;;;;;6.80;2.90;;;3.70;74.80;;;;;;5089724;28;20020;-84
2022/04/01 07:19:08;;;;;;;4.45;2.90;;;3.60;74.40;;;;;;5094074;28;20031;-86
2022/04/01 07:21:34;;;;;;;4.97;3.05;;;3.60;75.20;;;;;;5073874;28;20024;-86
2022/04/01 07:24:01;;;;;;;4.72;2.50;;;3.50;74.40;;;;;;5082694;28;20082;-86
2022/04/01 07:26:27;;;;;;;4.80;2.95;;;3.50;74.30;;;;;;5114020;28;20016;-87
2022/04/01 07:28:54;;;;;;;5.15;3.00;;;3.40;74.70;;;;;;5106122;28;20104;-86
2022/04/01 07:34:04;;;;;;;10.23;3.25;;;3.20;75.80;;;;;;5090913;28;20063;-86
2022/04/01 07:36:30;;;;;;;4.07;3.13;;;3.10;75.50;;;;;;5107792;28;20028;-86
2022/04/01 07:38:55;;;;;;;5.18;3.00;;;3.20;77.00;;;;;;5104622;28;20020;-87
2022/04/01 07:41:21;;;;;;;4.82;2.90;;;3.10;77.90;;;;;;5089233;28;20031;-86
2022/04/01 07:43:46;;;;;;;7.05;4.05;;;3.10;78.70;;;;;;5096220;28;20055;-86
2022/04/01 07:46:12;;;;;;;4.38;2.95;;;3.20;79.30;;;;;;5088439;28;20377;-86
2022/04/01 07:48:38;;;;;;;7.22;3.30;;;3.20;79.50;;;;;;5055906;28;20020;-88
2022/04/01 07:51:03;;;;;;;4.72;3.33;;;3.40;79.60;;;;;;5058327;28;20500;-88
2022/04/01 07:53:29;;;;;;;4.10;2.67;;;3.50;79.30;;;;;;5074884;28;20016;-86
2022/04/01 07:55:54;;;;;;;8.80;2.70;;;3.60;80.00;;;;;;5073265;28;20592;-85
2022/04/01 07:58:21;;;;;;;4.50;2.72;;;3.70;78.60;;;;;;5075448;28;20020;-86
2022/04/01 08:00:46;;;;;;;5.13;3.25;;;3.80;79.10;;;;;;5058004;28;20453;-88
2022/04/01 08:03:45;;;;;;;5.00;3.03;;;3.70;79.10;;;;;;5058505;28;20060;-88
2022/04/01 08:06:10;;;;;;;4.45;2.85;;;3.90;78.30;;;;;;5081833;28;20016;-87
2022/04/01 08:08:38;;;;;;;6.05;3.25;;;3.70;78.70;;;;;;5092152;28;20030;-89
2022/04/01 08:11:04;;;;;;;4.90;2.83;;;3.60;78.80;;;;;;5065612;28;20017;-87
2022/04/01 08:13:29;;;;;;;4.28;2.88;;;3.30;81.30;;;;;;5064699;28;20036;-86
2022/04/01 08:15:54;;;;;;;6.45;3.22;;;3.30;81.60;;;;;;5062359;28;20120;-87
2022/04/01 08:18:20;;;;;;;4.38;3.05;;;3.30;80.20;;;;;;5055728;28;20376;-86
2022/04/01 08:20:47;;;;;;;5.60;3.28;;;3.10;81.40;;;;;;5066764;28;20095;-87
2022/04/01 08:23:12;;;;;;;5.47;3.25;;;3.20;80.20;;;;;;5076048;28;20127;-86
2022/04/01 08:25:37;;;;;;;8.65;3.53;;;3.30;79.30;;;;;;5058258;28;20452;-87
2022/04/01 08:28:03;;;;;;;8.02;3.47;;;3.50;78.90;;;;;;5072555;28;20024;-86
2022/04/01 08:30:29;;;;;;;5.20;3.30;;;3.40;79.80;;;;;;5078082;28;20361;-87
2022/04/01 08:32:54;;;;;;;7.38;4.03;;;3.50;78.60;;;;;;5074256;28;20028;-89
2022/04/01 08:35:20;;;;;;;5.22;3.05;;;3.40;78.60;;;;;;5055201;28;20096;-89
2022/04/01 08:37:46;;;;;;;6.28;4.20;;;3.30;79.70;;;;;;5054735;28;20111;-87
2022/04/01 08:40:12;;;;;;;6.82;3.25;;;3.30;79.70;;;;;;5071672;28;20020;-84
2022/04/01 08:42:46;;;;;;;7.80;3.85;;;3.50;79.80;;;;;;5082920;28;20020;-85
2022/04/01 08:45:12;;;;;;;9.57;3.50;;;3.30;80.40;;;;;;5071449;28;20027;-87
2022/04/01 08:47:38;;;;;;;8.55;3.42;;;3.20;81.70;;;;;;5053326;28;20111;-87
2022/04/01 08:50:04;;;;;;;5.07;3.17;;;3.10;82.00;;;;;;5053325;28;20714;-86
2022/04/01 08:52:30;;;;;;;9.38;3.97;;;2.90;84.10;;;;;;5070851;28;20031;-85
2022/04/01 08:55:05;;;;;;;9.02;3.58;;;2.90;84.10;;;;;;5080977;28;20095;-85
2022/04/01 08:57:41;;;;;;;5.05;2.97;;;2.80;84.50;;;;;;5081727;28;20078;-86
2022/04/01 09:00:15;;;;;;;14.55;10.63;;;2.90;84.30;;;;;;5052929;28;20110;-85
2022/04/01 09:02:42;;;;;;;10.32;4.05;;;3.00;84.20;;;;;;5071780;28;20031;-86
2022/04/01 09:05:10;;;;;;;7.30;5.22;;;3.10;84.60;;;;;;5053186;28;20052;-88
2022/04/01 09:07:36;;;;;;;7.63;4.95;;;3.20;83.80;;;;;;5057218;28;20028;-87
2022/04/01 09:10:04;;;;;;;6.30;4.70;;;3.10;83.30;;;;;;5052714;28;20107;-88
2022/04/01 09:12:30;;;;;;;9.20;4.45;;;3.20;83.80;;;;;;5052790;28;20028;-87
2022/04/01 09:14:57;;;;;;;9.02;3.65;;;3.10;83.30;;;;;;5052910;28;20381;-87
2022/04/01 09:17:43;;;;;;;6.32;3.67;;;3.30;84.10;;;;;;5052324;28;20085;-88
2022/04/01 09:20:10;;;;;;;5.80;3.28;;;3.40;81.20;;;;;;5057294;28;20059;-86
2022/04/01 09:22:37;;;;;;;7.32;3.35;;;3.40;80.50;;;;;;5070697;28;20027;-87
2022/04/01 09:25:14;;;;;;;5.15;3.20;;;3.40;80.20;;;;;;5052653;28;21951;-86
2022/04/01 09:27:46;;;;;;;6.68;3.58;;;3.50;80.90;;;;;;5053256;28;20039;-86
2022/04/01 09:30:17;;;;;;;5.93;3.45;;;3.40;82.60;;;;;;5069454;28;20342;-87
2022/04/01 09:32:51;;;;;;;5.88;3.22;;;3.30;83.10;;;;;;5053289;28;20384;-85
2022/04/01 09:35:20;;;;;;;5.45;3.53;;;3.20;84.80;;;;;;5052440;28;20028;-85
2022/04/01 09:38:01;;;;;;;6.70;3.25;;;3.20;86.70;;;;;;5069819;28;20032;-86
2022/04/01 09:40:27;;;;;;;7.80;3.63;;;3.20;86.90;;;;;;5051880;28;20029;-88
2022/04/01 09:42:58;;;;;;;5.55;3.63;;;3.40;87.90;;;;;;5052989;28;20032;-88
2022/04/01 09:45:32;;;;;;;15.15;10.35;;;3.50;89.30;;;;;;5052052;28;20075;-85
2022/04/01 09:48:03;;;;;;;11.85;7.50;;;3.60;88.20;;;;;;5051166;28;20638;-85
2022/04/01 09:50:34;;;;;;;4.95;4.07;;;3.50;89.70;;;;;;5044209;28;20024;-88
2022/04/01 09:53:07;;;;;;;8.75;5.75;;;3.50;89.50;;;;;;5070644;28;20074;-89
2022/04/01 09:55:46;;;;;;;20.60;15.38;;;3.50;89.10;;;;;;5052646;28;20016;-87
2022/04/01 09:58:13;;;;;;;14.75;11.05;;;3.50;88.60;;;;;;5071067;28;20031;-85
2022/04/01 10:00:41;;;;;;;33.75;26.10;;;3.50;88.70;;;;;;5052313;28;20033;-84
2022/04/01 10:03:08;;;;;;;22.45;16.55;;;3.40;88.50;;;;;;5051604;28;20020;-86
2022/04/01 10:05:38;;;;;;;26.25;18.98;;;3.40;89.20;;;;;;5051450;28;20029;-88
2022/04/01 10:08:06;;;;;;;14.40;10.05;;;3.30;88.90;;;;;;5061302;28;20281;-85
2022/04/01 10:10:32;;;;;;;29.30;18.05;;;3.40;90.10;;;;;;5051397;28;20028;-87
2022/04/01 10:13:03;;;;;;;21.30;12.88;;;3.60;89.80;;;;;;5051141;28;20024;-86
2022/04/01 10:15:29;;;;;;;15.07;9.55;;;3.50;88.50;;;;;;5068902;28;20029;-87
2022/04/01 10:17:57;;;;;;;4.57;3.63;;;3.40;89.60;;;;;;5068875;28;20102;-86
2022/04/01 10:20:33;;;;;;;6.30;4.25;;;3.50;89.70;;;;;;5051645;28;20040;-87
2022/04/01 10:23:02;;;;;;;5.82;3.30;;;3.50;89.20;;;;;;5070384;28;20021;-87
2022/04/01 10:25:33;;;;;;;8.73;7.85;;;3.50;90.00;;;;;;5069359;28;20037;-87
2022/04/01 10:28:02;;;;;;;6.18;5.10;;;3.60;88.20;;;;;;5069419;28;20020;-86
2022/04/01 10:30:31;;;;;;;8.13;4.75;;;3.60;88.80;;;;;;5068892;28;20108;-87
2022/04/01 10:32:57;;;;;;;4.95;3.40;;;3.60;88.20;;;;;;5067775;28;20064;-87
2022/04/01 10:35:27;;;;;;;4.25;2.72;;;3.60;87.80;;;;;;5054589;28;20484;-87
2022/04/01 10:38:06;;;;;;;5.13;3.28;;;3.60;88.00;;;;;;5049685;28;20100;-87
2022/04/01 10:40:36;;;;;;;6.93;2.95;;;3.80;88.30;;;;;;5067559;28;20115;-87
2022/04/01 10:43:28;;;;;;;5.68;3.60;;;3.90;88.50;;;;;;5050862;28;20044;-87
2022/04/01 10:46:04;;;;;;;5.68;3.10;;;4.00;88.40;;;;;;5068931;28;20025;-86
2022/04/01 10:51:44;;;;;;;5.68;3.10;;;4.30;87.60;;;;;;5070999;28;20562;-86
2022/04/01 10:54:12;;;;;;;3.80;2.53;;;4.40;85.60;;;;;;5043507;28;20025;-89
2022/04/01 10:56:39;;;;;;;6.03;2.40;;;4.30;85.50;;;;;;5052347;28;20141;-87
2022/04/01 10:59:17;;;;;;;4.95;2.92;;;4.30;84.90;;;;;;5047605;28;20028;-88
2022/04/01 11:02:04;;;;;;;4.18;3.33;;;4.30;85.60;;;;;;5052876;28;20112;-88
2022/04/01 11:04:44;;;;;;;3.72;2.90;;;4.40;85.40;;;;;;5070184;28;20064;-86
2022/04/01 11:07:22;;;;;;;5.88;4.07;;;4.30;86.20;;;;;;5052134;28;20020;-86
2022/04/01 11:09:54;;;;;;;5.63;4.13;;;4.30;86.30;;;;;;5057611;28;20484;-87
2022/04/01 11:12:31;;;;;;;6.35;5.18;;;4.30;85.30;;;;;;5051373;28;20039;-87
2022/04/01 11:15:11;;;;;;;6.00;3.88;;;4.40;85.50;;;;;;5053268;28;20123;-88
2022/04/01 11:17:37;;;;;;;15.07;12.18;;;4.40;85.00;;;;;;5073578;28;20021;-87
2022/04/01 11:20:04;;;;;;;3.85;2.90;;;4.50;86.90;;;;;;5059987;28;20024;-87
2022/04/01 11:22:48;;;;;;;4.50;2.33;;;4.40;84.70;;;;;;5059596;28;20024;-86
2022/04/01 11:25:39;;;;;;;4.75;2.65;;;4.60;83.60;;;;;;5081996;28;20032;-87
2022/04/01 11:28:08;;;;;;;7.00;2.65;;;4.60;83.00;;;;;;5057960;28;20036;-86
2022/04/01 11:30:54;;;;;;;4.03;2.40;;;4.60;83.90;;;;;;5056931;28;20039;-87
2022/04/01 11:33:21;;;;;;;5.43;2.30;;;4.60;82.60;;;;;;5079387;28;20040;-88
2022/04/01 11:35:53;;;;;;;4.35;2.53;;;4.60;84.40;;;;;;5062288;28;20380;-87
2022/04/01 11:38:23;;;;;;;4.32;2.50;;;4.60;83.00;;;;;;5052067;28;20120;-87
2022/04/01 11:40:53;;;;;;;4.50;2.95;;;4.60;84.20;;;;;;5070975;28;20037;-87
2022/04/01 11:43:20;;;;;;;5.78;2.40;;;4.60;83.90;;;;;;5053395;28;20043;-88
2022/04/01 11:45:54;;;;;;;2.78;2.08;;;4.70;83.70;;;;;;5071992;28;20020;-88
2022/04/01 11:48:36;;;;;;;4.05;2.70;;;4.80;83.80;;;;;;5060536;28;20032;-90
2022/04/01 11:51:11;;;;;;;4.28;2.97;;;4.80;83.80;;;;;;5045605;28;20025;-88
2022/04/01 11:53:43;;;;;;;5.80;2.42;;;4.80;84.40;;;;;;5058944;28;20041;-87
2022/04/01 11:56:31;;;;;;;3.78;2.70;;;4.70;84.40;;;;;;5043010;28;20105;-86
2022/04/01 11:59:07;;;;;;;4.88;2.33;;;4.70;83.40;;;;;;5062175;28;20029;-89
2022/04/01 12:02:02;;;;;;;4.85;2.63;;;4.90;82.40;;;;;;5050026;28;20036;-85
2022/04/01 12:04:30;;;;;;;4.90;3.10;;;4.90;78.50;;;;;;5058431;28;20055;-90
2022/04/01 12:09:44;;;;;;;4.30;1.95;;;5.10;79.30;;;;;;5074743;28;20039;-88
2022/04/01 12:12:22;;;;;;;5.88;2.65;;;5.30;78.00;;;;;;5070805;28;20037;-88
2022/04/01 12:14:48;;;;;;;3.25;2.35;;;5.20;78.40;;;;;;5051513;28;20036;-88
2022/04/01 12:17:15;;;;;;;7.28;2.05;;;5.30;78.20;;;;;;5069780;28;20036;-86
2022/04/01 12:19:40;;;;;;;4.72;2.53;;;5.30;78.00;;;;;;5073860;28;20051;-90
2022/04/01 12:22:08;;;;;;;2.80;1.60;;;5.40;75.80;;;;;;5068281;28;20346;-87
2022/04/01 12:24:35;;;;;;;3.60;2.55;;;5.60;76.60;;;;;;5058072;28;20188;-89
2022/04/01 12:27:04;;;;;;;2.60;1.95;;;5.70;76.30;;;;;;5056799;28;20102;-89
2022/04/01 12:29:30;;;;;;;4.78;2.65;;;5.60;74.20;;;;;;5056235;28;20458;-89
2022/04/01 12:31:58;;;;;;;3.15;2.13;;;5.70;75.40;;;;;;5062221;28;20074;-88
2022/04/01 12:34:25;;;;;;;4.13;2.15;;;5.80;73.10;;;;;;5072933;28;20040;-88
2022/04/01 12:36:56;;;;;;;5.35;1.98;;;6.00;72.80;;;;;;5071858;28;20028;-85
2022/04/01 12:39:22;;;;;;;3.85;2.17;;;6.20;71.80;;;;;;5055590;28;20074;-87
2022/04/01 12:42:09;;;;;;;3.35;2.05;;;6.20;70.80;;;;;;5056461;28;20033;-87
2022/04/01 12:44:38;;;;;;;2.72;2.00;;;6.50;69.70;;;;;;5055145;28;20024;-88
2022/04/01 12:47:04;;;;;;;5.32;2.25;;;6.70;71.90;;;;;;5056115;28;20024;-86
2022/04/01 12:49:33;;;;;;;5.40;2.88;;;6.70;67.80;;;;;;5057586;28;20126;-86
2022/04/01 12:52:03;;;;;;;3.10;2.15;;;6.80;67.40;;;;;;5054479;28;20028;-86
2022/04/01 12:54:33;;;;;;;8.20;2.58;;;6.70;67.60;;;;;;5072466;28;20158;-86
2022/04/01 12:57:04;;;;;;;3.50;1.83;;;6.60;68.30;;;;;;5053576;28;20453;-85
2022/04/01 12:59:41;;;;;;;8.68;2.85;;;6.70;68.40;;;;;;5053932;28;20020;-87
2022/04/01 13:02:12;;;;;;;8.88;3.50;;;6.80;67.00;;;;;;5072984;28;20368;-87
2022/04/01 13:04:45;;;;;;;7.90;2.22;;;6.50;67.80;;;;;;5072279;28;20043;-88
2022/04/01 13:07:15;;;;;;;5.50;1.98;;;6.70;67.60;;;;;;5053630;28;20013;-87
2022/04/01 13:10:11;;;;;;;3.95;2.08;;;6.90;66.30;;;;;;5053629;28;20059;-88
2022/04/01 13:12:40;;;;;;;5.15;2.38;;;7.00;65.20;;;;;;5068911;28;20024;-87
2022/04/01 13:15:17;;;;;;;3.05;1.73;;;7.00;63.60;;;;;;5071932;28;20024;-88
2022/04/01 13:17:49;;;;;;;2.70;2.13;;;7.10;63.40;;;;;;5053547;28;20464;-87
2022/04/01 13:20:17;;;;;;;2.28;2.00;;;7.10;62.40;;;;;;5052921;28;20457;-86
2022/04/01 13:22:43;;;;;;;5.65;1.60;;;7.30;61.70;;;;;;5070942;28;20025;-86
2022/04/01 13:25:12;;;;;;;2.63;1.73;;;7.30;61.70;;;;;;5052767;28;20085;-87